sensor_id;sensor_type;location;lat;lon;timestamp;pressure;altitude;pressure_sealevel;temperature;humidity
83363;BME280;73275;50.882;5.984;2023-12-07T00:00:16;100800.63;;;2.80;91.70
83363;BME280;73275;50.882;5.984;2023-12-07T00:02:41;100805.09;;;2.80;91.67
83363;BME280;73275;50.882;5.984;2023-12-07T00:05:07;100811.59;;;2.74;91.29
83363;BME280;73275;50.882;5.984;2023-12-07T00:07:33;100813.91;;;2.67;91.56
83363;BME280;73275;50.882;5.984;2023-12-07T00:09:58;100811.56;;;2.65;91.78
83363;BME280;73275;50.882;5.984;2023-12-07T00:12:24;100807.84;;;2.58;92.34
83363;BME280;73275;50.882;5.984;2023-12-07T00:14:49;100815.56;;;2.54;92.46
83363;BME280;73275;50.882;5.984;2023-12-07T00:17:14;100812.94;;;2.54;92.80
83363;BME280;73275;50.882;5.984;2023-12-07T00:19:40;100812.47;;;2.52;92.56
83363;BME280;73275;50.882;5.984;2023-12-07T00:22:05;100807.69;;;2.54;93.17
83363;BME280;73275;50.882;5.984;2023-12-07T00:24:31;100808.13;;;2.48;93.17
83363;BME280;73275;50.882;5.984;2023-12-07T00:26:56;100811.19;;;2.41;93.11
83363;BME280;73275;50.882;5.984;2023-12-07T00:29:21;100801.00;;;2.40;92.90
83363;BME280;73275;50.882;5.984;2023-12-07T00:31:47;100802.72;;;2.44;92.78
83363;BME280;73275;50.882;5.984;2023-12-07T00:34:12;100809.03;;;2.35;93.12
83363;BME280;73275;50.882;5.984;2023-12-07T00:36:38;100808.72;;;2.36;92.96
83363;BME280;73275;50.882;5.984;2023-12-07T00:39:06;100813.66;;;2.38;93.20
83363;BME280;73275;50.882;5.984;2023-12-07T00:41:31;100806.84;;;2.28;93.07
83363;BME280;73275;50.882;5.984;2023-12-07T00:43:57;100794.28;;;2.25;93.15
83363;BME280;73275;50.882;5.984;2023-12-07T00:46:22;100802.16;;;2.17;93.46
83363;BME280;73275;50.882;5.984;2023-12-07T00:48:48;100800.78;;;2.19;93.74
83363;BME280;73275;50.882;5.984;2023-12-07T00:51:13;100801.72;;;2.23;93.53
83363;BME280;73275;50.882;5.984;2023-12-07T00:53:40;100806.97;;;2.23;94.03
83363;BME280;73275;50.882;5.984;2023-12-07T00:56:06;100809.59;;;2.23;94.13
83363;BME280;73275;50.882;5.984;2023-12-07T00:58:32;100810.56;;;2.27;93.78
83363;BME280;73275;50.882;5.984;2023-12-07T01:00:57;100815.16;;;2.22;94.02
83363;BME280;73275;50.882;5.984;2023-12-07T01:03:22;100813.47;;;2.26;93.80
83363;BME280;73275;50.882;5.984;2023-12-07T01:05:48;100809.63;;;2.32;94.30
83363;BME280;73275;50.882;5.984;2023-12-07T01:08:13;100815.03;;;2.27;93.56
83363;BME280;73275;50.882;5.984;2023-12-07T01:10:39;100805.47;;;2.31;93.93
83363;BME280;73275;50.882;5.984;2023-12-07T01:13:04;100815.94;;;2.22;93.36
83363;BME280;73275;50.882;5.984;2023-12-07T01:15:29;100809.28;;;2.16;93.84
83363;BME280;73275;50.882;5.984;2023-12-07T01:17:55;100814.22;;;2.18;93.62
83363;BME280;73275;50.882;5.984;2023-12-07T01:20:20;100816.84;;;2.18;94.24
83363;BME280;73275;50.882;5.984;2023-12-07T01:22:45;100824.59;;;2.23;94.45
83363;BME280;73275;50.882;5.984;2023-12-07T01:25:11;100834.97;;;2.28;94.42
83363;BME280;73275;50.882;5.984;2023-12-07T01:27:37;100832.97;;;2.25;94.29
83363;BME280;73275;50.882;5.984;2023-12-07T01:30:03;100837.44;;;2.24;94.08
83363;BME280;73275;50.882;5.984;2023-12-07T01:32:29;100837.72;;;2.23;94.15
83363;BME280;73275;50.882;5.984;2023-12-07T01:34:54;100839.94;;;2.29;93.45
83363;BME280;73275;50.882;5.984;2023-12-07T01:37:20;100845.03;;;2.26;93.77
83363;BME280;73275;50.882;5.984;2023-12-07T01:39:45;100845.19;;;2.29;94.03
83363;BME280;73275;50.882;5.984;2023-12-07T01:42:11;100837.00;;;2.31;93.20
83363;BME280;73275;50.882;5.984;2023-12-07T01:44:38;100836.50;;;2.29;93.43
83363;BME280;73275;50.882;5.984;2023-12-07T01:47:04;100840.69;;;2.21;93.65
83363;BME280;73275;50.882;5.984;2023-12-07T01:49:30;100845.06;;;2.34;93.23
83363;BME280;73275;50.882;5.984;2023-12-07T01:51:56;100845.22;;;2.38;93.67
83363;BME280;73275;50.882;5.984;2023-12-07T01:54:22;100841.50;;;2.39;92.76
83363;BME280;73275;50.882;5.984;2023-12-07T01:56:48;100835.31;;;2.35;92.66
83363;BME280;73275;50.882;5.984;2023-12-07T01:59:14;100834.53;;;2.34;93.18
83363;BME280;73275;50.882;5.984;2023-12-07T02:01:39;100833.94;;;2.37;92.44
83363;BME280;73275;50.882;5.984;2023-12-07T02:04:05;100834.66;;;2.29;92.91
83363;BME280;73275;50.882;5.984;2023-12-07T02:06:30;100834.38;;;2.31;92.86
83363;BME280;73275;50.882;5.984;2023-12-07T02:08:56;100825.94;;;2.12;93.46
83363;BME280;73275;50.882;5.984;2023-12-07T02:11:21;100819.59;;;2.13;93.38
83363;BME280;73275;50.882;5.984;2023-12-07T02:13:47;100833.56;;;2.22;92.82
83363;BME280;73275;50.882;5.984;2023-12-07T02:18:59;100839.47;;;2.27;92.41
83363;BME280;73275;50.882;5.984;2023-12-07T02:21:38;100840.38;;;2.31;92.10
83363;BME280;73275;50.882;5.984;2023-12-07T02:24:06;100843.34;;;2.30;92.06
83363;BME280;73275;50.882;5.984;2023-12-07T02:26:35;100835.28;;;2.26;92.45
83363;BME280;73275;50.882;5.984;2023-12-07T02:29:00;100837.28;;;2.21;92.45
83363;BME280;73275;50.882;5.984;2023-12-07T02:31:26;100837.91;;;2.26;92.25
83363;BME280;73275;50.882;5.984;2023-12-07T02:33:52;100836.34;;;2.25;92.34
83363;BME280;73275;50.882;5.984;2023-12-07T02:36:19;100835.56;;;2.16;92.79
83363;BME280;73275;50.882;5.984;2023-12-07T02:38:46;100837.28;;;2.21;92.29
83363;BME280;73275;50.882;5.984;2023-12-07T02:41:13;100850.13;;;2.22;92.59
83363;BME280;73275;50.882;5.984;2023-12-07T02:43:39;100851.03;;;2.26;91.49
83363;BME280;73275;50.882;5.984;2023-12-07T02:46:05;100848.91;;;2.28;91.54
83363;BME280;73275;50.882;5.984;2023-12-07T02:48:30;100853.66;;;2.26;91.55
83363;BME280;73275;50.882;5.984;2023-12-07T02:50:55;100851.03;;;2.26;91.51
83363;BME280;73275;50.882;5.984;2023-12-07T02:53:21;100853.38;;;2.28;91.61
83363;BME280;73275;50.882;5.984;2023-12-07T02:55:46;100844.25;;;2.25;91.84
83363;BME280;73275;50.882;5.984;2023-12-07T02:58:12;100835.28;;;2.26;91.63
83363;BME280;73275;50.882;5.984;2023-12-07T03:00:37;100829.22;;;2.17;91.34
83363;BME280;73275;50.882;5.984;2023-12-07T03:03:02;100826.09;;;2.15;92.12
83363;BME280;73275;50.882;5.984;2023-12-07T03:05:28;100827.34;;;2.18;91.32
83363;BME280;73275;50.882;5.984;2023-12-07T03:07:53;100823.19;;;2.17;91.69
83363;BME280;73275;50.882;5.984;2023-12-07T03:10:18;100821.63;;;2.16;91.80
83363;BME280;73275;50.882;5.984;2023-12-07T03:12:44;100817.03;;;2.21;91.30
83363;BME280;73275;50.882;5.984;2023-12-07T03:15:09;100814.72;;;2.28;91.20
83363;BME280;73275;50.882;5.984;2023-12-07T03:17:35;100809.63;;;2.32;91.41
83363;BME280;73275;50.882;5.984;2023-12-07T03:20:01;100809.50;;;2.37;90.94
83363;BME280;73275;50.882;5.984;2023-12-07T03:22:26;100808.91;;;2.40;90.39
83363;BME280;73275;50.882;5.984;2023-12-07T03:24:52;100811.00;;;2.29;91.09
83363;BME280;73275;50.882;5.984;2023-12-07T03:27:18;100811.97;;;2.33;90.80
83363;BME280;73275;50.882;5.984;2023-12-07T03:29:43;100806.22;;;2.31;90.01
83363;BME280;73275;50.882;5.984;2023-12-07T03:32:09;100804.81;;;2.25;90.49
83363;BME280;73275;50.882;5.984;2023-12-07T03:34:34;100809.91;;;2.22;90.57
83363;BME280;73275;50.882;5.984;2023-12-07T03:36:59;100804.47;;;2.18;90.15
83363;BME280;73275;50.882;5.984;2023-12-07T03:39:25;100809.16;;;2.21;90.56
83363;BME280;73275;50.882;5.984;2023-12-07T03:41:51;100801.25;;;2.21;90.48
83363;BME280;73275;50.882;5.984;2023-12-07T03:44:16;100808.34;;;2.21;90.11
83363;BME280;73275;50.882;5.984;2023-12-07T03:46:42;100808.94;;;2.09;90.36
83363;BME280;73275;50.882;5.984;2023-12-07T03:49:07;100804.75;;;2.08;90.08
83363;BME280;73275;50.882;5.984;2023-12-07T03:51:33;100808.03;;;2.14;90.38
83363;BME280;73275;50.882;5.984;2023-12-07T03:54:00;100802.66;;;2.19;90.03
83363;BME280;73275;50.882;5.984;2023-12-07T03:56:26;100809.09;;;2.13;89.97
83363;BME280;73275;50.882;5.984;2023-12-07T03:58:52;100805.09;;;2.15;89.75
83363;BME280;73275;50.882;5.984;2023-12-07T04:01:21;100806.66;;;2.16;89.97
83363;BME280;73275;50.882;5.984;2023-12-07T04:03:48;100818.56;;;2.22;90.03
83363;BME280;73275;50.882;5.984;2023-12-07T04:06:13;100817.31;;;2.11;90.02
83363;BME280;73275;50.882;5.984;2023-12-07T04:08:39;100828.09;;;2.10;89.94
83363;BME280;73275;50.882;5.984;2023-12-07T04:11:04;100838.00;;;2.13;89.99
83363;BME280;73275;50.882;5.984;2023-12-07T04:13:29;100831.38;;;2.15;89.38
83363;BME280;73275;50.882;5.984;2023-12-07T04:15:55;100827.19;;;2.14;90.12
83363;BME280;73275;50.882;5.984;2023-12-07T04:18:20;100824.09;;;2.12;90.17
83363;BME280;73275;50.882;5.984;2023-12-07T04:20:46;100827.34;;;2.18;89.96
83363;BME280;73275;50.882;5.984;2023-12-07T04:23:11;100824.59;;;2.23;89.90
83363;BME280;73275;50.882;5.984;2023-12-07T04:25:36;100823.84;;;2.22;90.28
83363;BME280;73275;50.882;5.984;2023-12-07T04:28:02;100830.94;;;2.22;89.84
83363;BME280;73275;50.882;5.984;2023-12-07T04:30:27;100823.22;;;2.25;89.37
83363;BME280;73275;50.882;5.984;2023-12-07T04:32:53;100822.28;;;2.21;90.02
83363;BME280;73275;50.882;5.984;2023-12-07T04:35:18;100832.00;;;2.21;89.68
83363;BME280;73275;50.882;5.984;2023-12-07T04:37:43;100833.41;;;2.18;90.27
83363;BME280;73275;50.882;5.984;2023-12-07T04:40:09;100834.47;;;2.17;90.05
83363;BME280;73275;50.882;5.984;2023-12-07T04:42:36;100843.09;;;2.09;90.48
83363;BME280;73275;50.882;5.984;2023-12-07T04:45:01;100855.16;;;2.10;89.87
83363;BME280;73275;50.882;5.984;2023-12-07T04:47:26;100860.25;;;2.07;90.46
83363;BME280;73275;50.882;5.984;2023-12-07T04:49:52;100867.53;;;2.10;89.99
83363;BME280;73275;50.882;5.984;2023-12-07T04:52:17;100870.88;;;2.02;90.77
83363;BME280;73275;50.882;5.984;2023-12-07T04:54:44;100871.53;;;2.07;90.56
83363;BME280;73275;50.882;5.984;2023-12-07T04:57:10;100863.66;;;2.07;91.00
83363;BME280;73275;50.882;5.984;2023-12-07T04:59:35;100864.13;;;2.09;91.00
83363;BME280;73275;50.882;5.984;2023-12-07T05:02:01;100858.69;;;2.06;90.90
83363;BME280;73275;50.882;5.984;2023-12-07T05:04:27;100855.78;;;2.07;90.84
83363;BME280;73275;50.882;5.984;2023-12-07T05:06:52;100853.28;;;2.02;90.95
83363;BME280;73275;50.882;5.984;2023-12-07T05:09:18;100847.19;;;1.93;90.94
83363;BME280;73275;50.882;5.984;2023-12-07T05:11:43;100846.72;;;1.91;91.36
83363;BME280;73275;50.882;5.984;2023-12-07T05:14:10;100851.28;;;1.77;91.67
83363;BME280;73275;50.882;5.984;2023-12-07T05:16:36;100854.06;;;1.81;91.84
83363;BME280;73275;50.882;5.984;2023-12-07T05:19:01;100852.81;;;1.78;91.43
83363;BME280;73275;50.882;5.984;2023-12-07T05:21:27;100856.00;;;1.67;92.07
83363;BME280;73275;50.882;5.984;2023-12-07T05:23:53;100853.31;;;1.58;91.94
83363;BME280;73275;50.882;5.984;2023-12-07T05:26:18;100850.88;;;1.62;92.30
83363;BME280;73275;50.882;5.984;2023-12-07T05:28:44;100840.31;;;1.53;92.50
83363;BME280;73275;50.882;5.984;2023-12-07T05:31:15;100840.25;;;1.45;92.61
83363;BME280;73275;50.882;5.984;2023-12-07T05:33:41;100839.00;;;1.42;92.83
83363;BME280;73275;50.882;5.984;2023-12-07T05:36:06;100840.97;;;1.37;92.87
83363;BME280;73275;50.882;5.984;2023-12-07T05:38:32;100839.31;;;1.41;93.24
83363;BME280;73275;50.882;5.984;2023-12-07T05:40:57;100834.84;;;1.41;93.37
83363;BME280;73275;50.882;5.984;2023-12-07T05:43:22;100824.88;;;1.30;92.86
83363;BME280;73275;50.882;5.984;2023-12-07T05:45:48;100815.91;;;1.31;93.67
83363;BME280;73275;50.882;5.984;2023-12-07T05:48:13;100821.16;;;1.31;93.33
83363;BME280;73275;50.882;5.984;2023-12-07T05:50:39;100816.81;;;1.26;93.32
83363;BME280;73275;50.882;5.984;2023-12-07T05:53:06;100826.47;;;1.17;93.19
83363;BME280;73275;50.882;5.984;2023-12-07T05:55:31;100818.69;;;1.12;92.86
83363;BME280;73275;50.882;5.984;2023-12-07T05:57:57;100821.78;;;1.14;93.60
83363;BME280;73275;50.882;5.984;2023-12-07T06:00:22;100811.28;;;1.14;93.32
83363;BME280;73275;50.882;5.984;2023-12-07T06:02:48;100805.47;;;1.17;93.85
83363;BME280;73275;50.882;5.984;2023-12-07T06:05:14;100809.16;;;1.16;93.70
83363;BME280;73275;50.882;5.984;2023-12-07T06:07:40;100801.31;;;1.16;93.62
83363;BME280;73275;50.882;5.984;2023-12-07T06:10:06;100803.75;;;1.13;93.21
83363;BME280;73275;50.882;5.984;2023-12-07T06:12:32;100802.50;;;1.10;93.73
83363;BME280;73275;50.882;5.984;2023-12-07T06:14:58;100804.31;;;1.10;93.39
83363;BME280;73275;50.882;5.984;2023-12-07T06:17:23;100809.09;;;1.08;92.69
83363;BME280;73275;50.882;5.984;2023-12-07T06:19:48;100806.19;;;1.09;92.89
83363;BME280;73275;50.882;5.984;2023-12-07T06:22:14;100802.78;;;1.09;92.83
83363;BME280;73275;50.882;5.984;2023-12-07T06:24:39;100799.00;;;1.01;92.78
83363;BME280;73275;50.882;5.984;2023-12-07T06:27:05;100793.94;;;1.05;93.04
83363;BME280;73275;50.882;5.984;2023-12-07T06:29:30;100786.97;;;1.00;93.13
83363;BME280;73275;50.882;5.984;2023-12-07T06:31:57;100790.69;;;0.99;93.51
83363;BME280;73275;50.882;5.984;2023-12-07T06:34:22;100792.63;;;0.94;92.91
83363;BME280;73275;50.882;5.984;2023-12-07T06:36:47;100802.34;;;0.93;93.27
83363;BME280;73275;50.882;5.984;2023-12-07T06:39:13;100795.06;;;0.90;93.13
83363;BME280;73275;50.882;5.984;2023-12-07T06:41:39;100794.59;;;0.88;93.58
83363;BME280;73275;50.882;5.984;2023-12-07T06:44:06;100800.78;;;0.92;93.49
83363;BME280;73275;50.882;5.984;2023-12-07T06:46:31;100792.56;;;0.85;93.17
83363;BME280;73275;50.882;5.984;2023-12-07T06:48:57;100797.91;;;0.80;92.88
83363;BME280;73275;50.882;5.984;2023-12-07T06:51:22;100786.06;;;0.83;93.12
83363;BME280;73275;50.882;5.984;2023-12-07T06:53:48;100792.56;;;0.85;93.22
83363;BME280;73275;50.882;5.984;2023-12-07T06:56:13;100779.16;;;0.87;92.98
83363;BME280;73275;50.882;5.984;2023-12-07T06:58:40;100782.91;;;0.94;93.11
83363;BME280;73275;50.882;5.984;2023-12-07T07:01:05;100789.25;;;0.93;93.31
83363;BME280;73275;50.882;5.984;2023-12-07T07:03:30;100785.16;;;0.87;93.18
83363;BME280;73275;50.882;5.984;2023-12-07T07:05:56;100776.63;;;0.82;92.88
83363;BME280;73275;50.882;5.984;2023-12-07T07:08:21;100780.63;;;0.79;93.35
83363;BME280;73275;50.882;5.984;2023-12-07T07:10:47;100773.72;;;0.83;93.52
83363;BME280;73275;50.882;5.984;2023-12-07T07:13:12;100775.38;;;0.79;92.73
83363;BME280;73275;50.882;5.984;2023-12-07T07:15:42;100775.38;;;0.79;92.67
83363;BME280;73275;50.882;5.984;2023-12-07T07:18:07;100778.78;;;0.80;92.77
83363;BME280;73275;50.882;5.984;2023-12-07T07:20:33;100777.81;;;0.76;92.77
83363;BME280;73275;50.882;5.984;2023-12-07T07:22:59;100791.41;;;0.78;93.40
83363;BME280;73275;50.882;5.984;2023-12-07T07:25:24;100786.94;;;0.78;92.92
83363;BME280;73275;50.882;5.984;2023-12-07T07:27:50;100778.28;;;0.78;93.02
83363;BME280;73275;50.882;5.984;2023-12-07T07:30:15;100783.06;;;0.76;93.40
83363;BME280;73275;50.882;5.984;2023-12-07T07:32:41;100790.16;;;0.75;92.73
83363;BME280;73275;50.882;5.984;2023-12-07T07:35:07;100793.06;;;0.74;92.57
83363;BME280;73275;50.882;5.984;2023-12-07T07:37:33;100793.84;;;0.74;92.67
83363;BME280;73275;50.882;5.984;2023-12-07T07:39:58;100797.44;;;0.78;92.01
83363;BME280;73275;50.882;5.984;2023-12-07T07:42:25;100792.38;;;0.82;92.40
83363;BME280;73275;50.882;5.984;2023-12-07T07:44:50;100800.59;;;0.89;92.59
83363;BME280;73275;50.882;5.984;2023-12-07T07:47:16;100795.66;;;0.87;92.50
83363;BME280;73275;50.882;5.984;2023-12-07T07:49:41;100801.28;;;0.94;92.21
83363;BME280;73275;50.882;5.984;2023-12-07T07:52:07;100798.94;;;0.93;92.18
83363;BME280;73275;50.882;5.984;2023-12-07T07:54:32;100798.66;;;0.94;91.92
83363;BME280;73275;50.882;5.984;2023-12-07T07:56:58;100796.31;;;0.93;91.67
83363;BME280;73275;50.882;5.984;2023-12-07T07:59:23;100799.84;;;0.88;91.19
83363;BME280;73275;50.882;5.984;2023-12-07T08:01:49;100802.75;;;0.87;91.48
83363;BME280;73275;50.882;5.984;2023-12-07T08:04:15;100797.34;;;0.83;91.39
83363;BME280;73275;50.882;5.984;2023-12-07T08:06:41;100796.25;;;0.84;91.91
83363;BME280;73275;50.882;5.984;2023-12-07T08:09:07;100794.72;;;0.83;91.86
83363;BME280;73275;50.882;5.984;2023-12-07T08:11:33;100785.25;;;0.82;91.79
83363;BME280;73275;50.882;5.984;2023-12-07T08:13:58;100770.03;;;0.84;90.96
83363;BME280;73275;50.882;5.984;2023-12-07T08:16:23;100773.41;;;0.85;90.64
83363;BME280;73275;50.882;5.984;2023-12-07T08:18:49;100776.81;;;0.85;90.61
83363;BME280;73275;50.882;5.984;2023-12-07T08:21:21;100774.31;;;0.80;90.10
83363;BME280;73275;50.882;5.984;2023-12-07T08:23:47;100773.84;;;0.78;90.35
83363;BME280;73275;50.882;5.984;2023-12-07T08:26:12;100776.94;;;0.80;90.45
83363;BME280;73275;50.882;5.984;2023-12-07T08:28:40;100777.28;;;0.87;90.92
83363;BME280;73275;50.882;5.984;2023-12-07T08:31:05;100771.47;;;0.90;90.79
83363;BME280;73275;50.882;5.984;2023-12-07T08:33:32;100772.53;;;0.89;90.70
83363;BME280;73275;50.882;5.984;2023-12-07T08:35:59;100767.47;;;0.93;90.65
83363;BME280;73275;50.882;5.984;2023-12-07T08:38:25;100771.16;;;0.92;90.59
83363;BME280;73275;50.882;5.984;2023-12-07T08:40:50;100780.47;;;0.98;89.95
83363;BME280;73275;50.882;5.984;2023-12-07T08:43:18;100776.19;;;1.02;90.14
83363;BME280;73275;50.882;5.984;2023-12-07T08:45:44;100772.19;;;1.04;90.25
83363;BME280;73275;50.882;5.984;2023-12-07T08:48:09;100770.44;;;1.00;89.94
83363;BME280;73275;50.882;5.984;2023-12-07T08:50:35;100771.59;;;1.07;89.16
83363;BME280;73275;50.882;5.984;2023-12-07T08:53:00;100774.38;;;1.11;89.13
83363;BME280;73275;50.882;5.984;2023-12-07T08:55:25;100782.16;;;1.16;89.42
83363;BME280;73275;50.882;5.984;2023-12-07T08:57:53;100785.56;;;1.16;88.94
83363;BME280;73275;50.882;5.984;2023-12-07T09:00:18;100777.69;;;1.16;88.63
83363;BME280;73275;50.882;5.984;2023-12-07T09:02:49;100778.53;;;1.25;89.04
83363;BME280;73275;50.882;5.984;2023-12-07T09:05:14;100777.50;;;1.35;88.64
83363;BME280;73275;50.882;5.984;2023-12-07T09:07:40;100780.28;;;1.38;88.45
83363;BME280;73275;50.882;5.984;2023-12-07T09:10:06;100784.50;;;1.48;88.54
83363;BME280;73275;50.882;5.984;2023-12-07T09:12:32;100769.69;;;1.43;87.74
83363;BME280;73275;50.882;5.984;2023-12-07T09:14:57;100777.13;;;1.50;88.17
83363;BME280;73275;50.882;5.984;2023-12-07T09:17:22;100769.88;;;1.55;88.15
83363;BME280;73275;50.882;5.984;2023-12-07T09:19:48;100774.25;;;1.60;87.95
83363;BME280;73275;50.882;5.984;2023-12-07T09:22:13;100783.50;;;1.57;87.97
83363;BME280;73275;50.882;5.984;2023-12-07T09:24:41;100779.19;;;1.61;86.82
83363;BME280;73275;50.882;5.984;2023-12-07T09:27:06;100782.81;;;1.74;86.06
83363;BME280;73275;50.882;5.984;2023-12-07T09:29:32;100791.34;;;1.79;85.36
83363;BME280;73275;50.882;5.984;2023-12-07T09:31:57;100796.44;;;1.76;86.18
83363;BME280;73275;50.882;5.984;2023-12-07T09:34:22;100795.53;;;1.80;86.25
83363;BME280;73275;50.882;5.984;2023-12-07T09:36:48;100787.22;;;1.87;85.79
83363;BME280;73275;50.882;5.984;2023-12-07T09:39:13;100781.97;;;1.87;85.96
83363;BME280;73275;50.882;5.984;2023-12-07T09:41:40;100768.81;;;1.87;85.85
83363;BME280;73275;50.882;5.984;2023-12-07T09:44:07;100766.38;;;1.99;85.85
83363;BME280;73275;50.882;5.984;2023-12-07T09:46:32;100755.88;;;1.99;85.57
83363;BME280;73275;50.882;5.984;2023-12-07T09:48:58;100752.97;;;2.09;85.23
83363;BME280;73275;50.882;5.984;2023-12-07T09:51:23;100748.53;;;2.26;84.42
83363;BME280;73275;50.882;5.984;2023-12-07T09:53:52;100742.22;;;2.36;83.81
83363;BME280;73275;50.882;5.984;2023-12-07T09:56:18;100730.47;;;2.42;83.39
83363;BME280;73275;50.882;5.984;2023-12-07T09:58:43;100723.03;;;2.52;82.43
83363;BME280;73275;50.882;5.984;2023-12-07T10:01:08;100716.25;;;2.68;82.63
83363;BME280;73275;50.882;5.984;2023-12-07T10:03:34;100715.16;;;3.03;80.79
83363;BME280;73275;50.882;5.984;2023-12-07T10:06:00;100718.38;;;3.26;79.48
83363;BME280;73275;50.882;5.984;2023-12-07T10:08:27;100714.34;;;3.28;78.61
83363;BME280;73275;50.882;5.984;2023-12-07T10:11:03;100715.22;;;3.41;79.39
83363;BME280;73275;50.882;5.984;2023-12-07T10:13:30;100707.06;;;3.71;78.77
83363;BME280;73275;50.882;5.984;2023-12-07T10:16:08;100703.59;;;3.79;76.83
83363;BME280;73275;50.882;5.984;2023-12-07T10:18:35;100701.88;;;3.83;76.23
83363;BME280;73275;50.882;5.984;2023-12-07T10:21:01;100703.00;;;3.82;77.54
83363;BME280;73275;50.882;5.984;2023-12-07T10:23:27;100694.25;;;3.90;77.51
83363;BME280;73275;50.882;5.984;2023-12-07T10:25:53;100685.72;;;3.93;78.08
83363;BME280;73275;50.882;5.984;2023-12-07T10:28:18;100685.53;;;3.98;77.55
83363;BME280;73275;50.882;5.984;2023-12-07T10:30:45;100669.44;;;4.20;74.79
83363;BME280;73275;50.882;5.984;2023-12-07T10:33:11;100668.13;;;4.26;74.35
83363;BME280;73275;50.882;5.984;2023-12-07T10:35:42;100665.63;;;4.30;75.77
83363;BME280;73275;50.882;5.984;2023-12-07T10:38:08;100656.88;;;4.17;75.02
83363;BME280;73275;50.882;5.984;2023-12-07T10:40:33;100648.06;;;4.13;75.38
83363;BME280;73275;50.882;5.984;2023-12-07T10:43:03;100647.66;;;4.23;75.83
83363;BME280;73275;50.882;5.984;2023-12-07T10:45:30;100638.75;;;4.36;74.89
83363;BME280;73275;50.882;5.984;2023-12-07T10:48:02;100647.03;;;4.67;74.89
83363;BME280;73275;50.882;5.984;2023-12-07T10:50:31;100642.28;;;5.05;74.20
83363;BME280;73275;50.882;5.984;2023-12-07T10:52:59;100637.38;;;5.28;70.84
83363;BME280;73275;50.882;5.984;2023-12-07T10:55:30;100650.28;;;5.53;69.70
83363;BME280;73275;50.882;5.984;2023-12-07T10:57:58;100639.16;;;5.72;69.88
83363;BME280;73275;50.882;5.984;2023-12-07T11:00:25;100630.69;;;5.90;69.34
83363;BME280;73275;50.882;5.984;2023-12-07T11:02:53;100634.03;;;6.27;68.42
83363;BME280;73275;50.882;5.984;2023-12-07T11:05:19;100618.81;;;6.79;66.99
83363;BME280;73275;50.882;5.984;2023-12-07T11:07:55;100623.75;;;7.23;64.65
83363;BME280;73275;50.882;5.984;2023-12-07T11:10:27;100626.28;;;7.51;62.71
83363;BME280;73275;50.882;5.984;2023-12-07T11:15:32;100616.88;;;8.03;60.53
83363;BME280;73275;50.882;5.984;2023-12-07T11:17:57;100618.19;;;8.13;59.01
83363;BME280;73275;50.882;5.984;2023-12-07T11:20:46;100616.28;;;8.67;56.97
83363;BME280;73275;50.882;5.984;2023-12-07T11:23:16;100611.81;;;8.52;57.22
83363;BME280;73275;50.882;5.984;2023-12-07T11:25:43;100609.03;;;8.45;57.26
83363;BME280;73275;50.882;5.984;2023-12-07T11:28:11;100607.19;;;8.30;57.05
83363;BME280;73275;50.882;5.984;2023-12-07T11:30:37;100604.88;;;8.09;58.16
83363;BME280;73275;50.882;5.984;2023-12-07T11:33:04;100601.59;;;7.47;59.78
83363;BME280;73275;50.882;5.984;2023-12-07T11:35:31;100599.53;;;7.40;60.27
83363;BME280;73275;50.882;5.984;2023-12-07T11:38:07;100603.69;;;7.57;59.74
83363;BME280;73275;50.882;5.984;2023-12-07T11:40:45;100594.41;;;7.82;58.69
83363;BME280;73275;50.882;5.984;2023-12-07T11:43:18;100591.09;;;8.04;57.90
83363;BME280;73275;50.882;5.984;2023-12-07T11:45:48;100587.28;;;8.58;56.22
83363;BME280;73275;50.882;5.984;2023-12-07T11:48:15;100580.81;;;9.23;55.41
83363;BME280;73275;50.882;5.984;2023-12-07T11:51:00;100574.69;;;9.45;53.70
83363;BME280;73275;50.882;5.984;2023-12-07T11:53:30;100568.59;;;9.71;52.62
83363;BME280;73275;50.882;5.984;2023-12-07T11:55:59;100562.44;;;9.93;52.20
83363;BME280;73275;50.882;5.984;2023-12-07T11:58:27;100550.66;;;9.64;52.37
83363;BME280;73275;50.882;5.984;2023-12-07T12:00:53;100555.69;;;9.21;53.86
83363;BME280;73275;50.882;5.984;2023-12-07T12:03:22;100537.13;;;9.24;53.84
83363;BME280;73275;50.882;5.984;2023-12-07T12:05:48;100544.72;;;9.00;54.83
83363;BME280;73275;50.882;5.984;2023-12-07T12:08:13;100533.38;;;8.58;54.92
83363;BME280;73275;50.882;5.984;2023-12-07T12:10:40;100535.09;;;8.47;55.02
83363;BME280;73275;50.882;5.984;2023-12-07T12:13:08;100528.13;;;8.20;55.09
83363;BME280;73275;50.882;5.984;2023-12-07T12:15:34;100530.13;;;8.07;55.91
83363;BME280;73275;50.882;5.984;2023-12-07T12:18:00;100521.75;;;7.86;56.39
83363;BME280;73275;50.882;5.984;2023-12-07T12:20:26;100526.66;;;7.50;57.58
83363;BME280;73275;50.882;5.984;2023-12-07T12:22:52;100515.66;;;7.48;57.72
83363;BME280;73275;50.882;5.984;2023-12-07T12:25:23;100510.53;;;7.39;56.08
83363;BME280;73275;50.882;5.984;2023-12-07T12:27:52;100505.78;;;7.48;56.92
83363;BME280;73275;50.882;5.984;2023-12-07T12:30:19;100500.94;;;7.50;57.11
83363;BME280;73275;50.882;5.984;2023-12-07T12:32:46;100491.31;;;7.61;56.29
83363;BME280;73275;50.882;5.984;2023-12-07T12:35:13;100484.47;;;7.60;57.02
83363;BME280;73275;50.882;5.984;2023-12-07T12:37:43;100474.09;;;7.90;55.85
83363;BME280;73275;50.882;5.984;2023-12-07T12:40:10;100463.22;;;8.17;55.04
83363;BME280;73275;50.882;5.984;2023-12-07T12:42:36;100453.94;;;8.49;53.25
83363;BME280;73275;50.882;5.984;2023-12-07T12:45:04;100439.66;;;8.80;53.12
83363;BME280;73275;50.882;5.984;2023-12-07T12:47:29;100434.53;;;8.68;52.78
83363;BME280;73275;50.882;5.984;2023-12-07T12:49:55;100436.69;;;8.59;53.09
83363;BME280;73275;50.882;5.984;2023-12-07T12:52:20;100437.31;;;8.30;53.71
83363;BME280;73275;50.882;5.984;2023-12-07T12:54:46;100427.59;;;7.96;54.76
83363;BME280;73275;50.882;5.984;2023-12-07T12:57:14;100427.09;;;7.90;56.32
83363;BME280;73275;50.882;5.984;2023-12-07T12:59:39;100427.41;;;8.08;56.16